Time;durP1;ratioP1;P1;durP2;ratioP2;P2;SDS_P1;SDS_P2;PMS_P1;PMS_P2;Temp;Humidity;BMP_temperature;BMP_pressure;BME280_temperature;BME280_humidity;BME280_pressure;Samples;Min_cycle;Max_cycle;Signal;HPM_P1;HPM_P2
2021/09/21 00:01:48;;;;;;;10.77;6.70;;;;;;;6.59;93.77;102985.78;5053248;28;20108;-73
2021/09/21 00:04:13;;;;;;;8.95;6.57;;;;;;;6.57;94.07;102989.41;5052606;28;20064;-73
2021/09/21 00:06:39;;;;;;;13.73;7.30;;;;;;;6.56;94.60;102983.25;5052832;28;20057;-74
2021/09/21 00:09:04;;;;;;;11.93;7.20;;;;;;;6.58;95.12;102984.06;5052632;28;20086;-73
2021/09/21 00:11:30;;;;;;;10.05;6.28;;;;;;;6.56;94.81;102985.06;5051803;28;20041;-72
2021/09/21 00:13:57;;;;;;;9.18;6.60;;;;;;;6.52;94.45;102989.59;5052404;28;20127;-73
2021/09/21 00:16:22;;;;;;;8.23;6.70;;;;;;;6.49;94.34;102989.72;5053272;28;20041;-73
2021/09/21 00:18:48;;;;;;;7.88;6.18;;;;;;;6.43;94.04;102988.16;5051932;28;20033;-73
2021/09/21 00:21:13;;;;;;;8.57;7.10;;;;;;;6.43;94.47;102993.44;5052333;28;20348;-73
2021/09/21 00:23:39;;;;;;;14.80;7.80;;;;;;;6.37;93.82;102991.03;5053085;28;20029;-73
2021/09/21 00:26:04;;;;;;;7.88;6.60;;;;;;;6.33;93.84;102990.31;5052260;28;20433;-73
2021/09/21 00:28:30;;;;;;;8.68;6.80;;;;;;;6.27;93.36;102993.19;5052388;28;20037;-73
2021/09/21 00:31:02;;;;;;;8.38;5.57;;;;;;;6.23;93.01;102991.56;5052522;28;20033;-75
2021/09/21 00:33:34;;;;;;;14.73;7.47;;;;;;;6.21;93.56;102992.53;5052879;28;20036;-73
2021/09/21 00:35:59;;;;;;;9.23;6.00;;;;;;;6.16;93.19;102990.09;5051804;28;20469;-73
2021/09/21 00:38:25;;;;;;;13.00;7.43;;;;;;;6.15;93.60;102997.16;5052608;28;20041;-73
2021/09/21 00:40:50;;;;;;;11.80;7.50;;;;;;;6.18;94.67;103004.13;5052993;28;20187;-73
2021/09/21 00:43:23;;;;;;;12.98;8.55;;;;;;;6.22;95.37;102996.91;5052018;28;20510;-73
2021/09/21 00:45:52;;;;;;;13.57;8.48;;;;;;;6.26;95.94;102998.53;5052556;28;20051;-73
2021/09/21 00:48:18;;;;;;;11.45;7.80;;;;;;;6.22;95.80;103007.50;5050197;28;20024;-73
2021/09/21 00:50:44;;;;;;;11.80;7.80;;;;;;;6.22;95.45;103013.63;5051276;28;20389;-73
2021/09/21 00:53:09;;;;;;;10.52;6.95;;;;;;;6.20;95.59;103012.84;5051581;28;20033;-73
2021/09/21 00:55:35;;;;;;;8.52;5.80;;;;;;;6.14;94.66;103016.56;5052490;28;20401;-73
2021/09/21 00:58:00;;;;;;;10.40;6.70;;;;;;;6.13;94.24;103020.13;5051768;28;20040;-74
2021/09/21 01:00:26;;;;;;;13.32;8.25;;;;;;;6.15;95.05;103013.03;5052146;28;20067;-73
2021/09/21 01:02:51;;;;;;;11.95;7.80;;;;;;;6.15;95.67;103005.09;5052061;28;20029;-73
2021/09/21 01:05:17;;;;;;;12.70;8.48;;;;;;;6.15;95.81;102999.81;5051727;28;20025;-73
2021/09/21 01:07:44;;;;;;;11.80;8.30;;;;;;;6.18;96.29;102999.69;5052431;28;20057;-73
2021/09/21 01:10:16;;;;;;;12.93;8.30;;;;;;;6.15;96.26;102991.00;5051713;28;20044;-73
2021/09/21 01:12:41;;;;;;;13.30;8.23;;;;;;;6.15;96.26;102989.22;5052421;28;20052;-73
2021/09/21 01:15:08;;;;;;;9.98;7.30;;;;;;;6.14;96.63;102984.00;5051648;28;20068;-74
2021/09/21 01:17:35;;;;;;;11.73;7.43;;;;;;;6.09;95.80;102976.25;5052219;28;20037;-73
2021/09/21 01:20:00;;;;;;;12.35;8.43;;;;;;;6.10;95.83;102970.03;5052236;28;20033;-73
2021/09/21 01:22:26;;;;;;;9.65;7.25;;;;;;;6.11;96.17;102973.53;5051681;28;20094;-73
2021/09/21 01:24:52;;;;;;;18.00;7.80;;;;;;;6.09;96.24;102965.69;5052189;28;20461;-73
2021/09/21 01:27:18;;;;;;;9.98;6.97;;;;;;;6.03;95.67;102963.28;5051197;28;20033;-73
2021/09/21 01:29:43;;;;;;;9.55;6.35;;;;;;;6.02;94.85;102971.22;5051774;28;20039;-73
2021/09/21 01:32:09;;;;;;;6.97;5.43;;;;;;;5.99;94.26;102975.72;5051594;28;20033;-73
2021/09/21 01:34:35;;;;;;;9.00;5.85;;;;;;;6.02;94.05;102973.88;5052130;28;20037;-73
2021/09/21 01:37:01;;;;;;;14.90;8.93;;;;;;;6.06;95.08;102979.00;5052096;28;20071;-73
2021/09/21 01:39:26;;;;;;;11.35;7.80;;;;;;;6.06;95.27;102979.00;5051131;28;20029;-74
2021/09/21 01:41:52;;;;;;;12.32;8.32;;;;;;;6.07;95.57;102972.78;5051800;28;20110;-73
2021/09/21 01:44:18;;;;;;;10.48;7.88;;;;;;;6.07;95.78;102979.84;5051206;28;20037;-74
2021/09/21 01:46:46;;;;;;;6.75;5.68;;;;;;;6.04;95.02;102982.63;5052091;28;20033;-74
2021/09/21 01:49:14;;;;;;;14.20;9.85;;;;;;;6.06;95.60;102983.41;5054827;28;20036;-73
2021/09/21 01:51:44;;;;;;;10.35;8.25;;;;;;;6.06;96.17;102980.78;5055654;28;20063;-73
2021/09/21 01:59:22;;;;;;;18.70;10.65;;;;;;;6.04;96.25;102967.59;5055067;28;20122;-73
2021/09/21 02:01:47;;;;;;;16.45;10.45;;;;;;;6.06;96.52;102970.19;5055527;28;20124;-73
2021/09/21 02:04:13;;;;;;;12.77;8.63;;;;;;;6.06;96.83;102978.13;5054550;28;20032;-73
2021/09/21 02:06:40;;;;;;;16.85;10.70;;;;;;;6.06;96.85;102973.72;5055366;28;20025;-73
2021/09/21 02:09:09;;;;;;;19.13;9.85;;;;;;;6.08;97.03;102973.66;5055434;28;20094;-73
2021/09/21 02:11:35;;;;;;;15.82;9.45;;;;;;;6.09;97.19;102968.31;5055385;28;20103;-73
2021/09/21 02:14:01;;;;;;;13.00;9.38;;;;;;;6.09;97.31;102976.25;5055370;28;20029;-72
2021/09/21 02:16:29;;;;;;;17.27;10.25;;;;;;;6.09;97.22;102976.25;5054587;28;20052;-73
2021/09/21 02:18:54;;;;;;;13.77;9.30;;;;;;;6.09;97.11;102976.25;5055245;28;20033;-73
2021/09/21 02:21:20;;;;;;;12.60;8.27;;;;;;;6.05;96.56;102979.06;5054898;28;20040;-73
2021/09/21 02:23:46;;;;;;;13.75;9.90;;;;;;;6.04;96.60;102977.34;5055066;28;20103;-73
2021/09/21 02:26:12;;;;;;;15.85;10.55;;;;;;;6.03;96.59;102980.88;5054511;28;20035;-73
2021/09/21 02:28:37;;;;;;;15.82;10.20;;;;;;;6.05;96.94;102981.72;5054561;28;20119;-73
2021/09/21 02:31:03;;;;;;;18.05;8.70;;;;;;;6.03;97.09;102980.88;5054778;28;20040;-73
2021/09/21 02:33:28;;;;;;;10.88;7.95;;;;;;;5.97;96.85;102979.31;5054290;28;20063;-73
2021/09/21 02:35:54;;;;;;;11.90;8.13;;;;;;;5.92;96.42;102986.53;5054854;28;20029;-73
2021/09/21 02:38:19;;;;;;;17.38;10.57;;;;;;;5.90;96.35;102983.94;5054193;28;20462;-73
2021/09/21 02:40:45;;;;;;;16.02;10.35;;;;;;;5.89;96.61;102989.28;5054737;28;20044;-73
2021/09/21 02:43:10;;;;;;;19.40;10.77;;;;;;;5.92;97.10;102995.31;5054765;28;20110;-73
2021/09/21 02:45:36;;;;;;;13.77;8.98;;;;;;;5.87;97.37;102989.34;5054672;28;20067;-74
2021/09/21 02:48:02;;;;;;;16.10;11.15;;;;;;;5.82;96.88;103007.13;5053440;28;20041;-73
2021/09/21 02:50:27;;;;;;;13.45;8.57;;;;;;;5.79;96.95;103008.13;5053970;28;20029;-74
2021/09/21 02:52:53;;;;;;;14.27;9.38;;;;;;;5.76;96.62;102999.44;5054599;28;20033;-73
2021/09/21 02:55:18;;;;;;;10.07;7.25;;;;;;;5.71;96.25;103014.59;5053953;28;20469;-73
2021/09/21 02:57:44;;;;;;;15.65;10.80;;;;;;;5.66;95.82;103017.41;5053970;28;20033;-73
2021/09/21 03:00:12;;;;;;;23.55;12.50;;;;;;;5.70;96.75;103013.72;5054317;28;20370;-73
2021/09/21 03:02:38;;;;;;;17.90;11.27;;;;;;;5.74;97.44;103014.50;5054335;28;20056;-74
2021/09/21 03:05:11;;;;;;;19.85;11.43;;;;;;;5.73;97.66;103010.09;5054257;28;20079;-73
2021/09/21 03:07:43;;;;;;;11.85;7.43;;;;;;;5.65;97.67;103018.31;5053732;28;20103;-74
2021/09/21 03:10:25;;;;;;;13.13;10.38;;;;;;;5.60;97.01;103020.25;5054401;28;20098;-73
2021/09/21 03:18:02;;;;;;;11.48;7.20;;;;;;;5.47;96.12;103022.44;5054211;28;20447;-73
2021/09/21 03:20:27;;;;;;;7.75;5.70;;;;;;;5.42;95.11;103021.72;5053408;28;20048;-74
2021/09/21 03:22:53;;;;;;;16.58;11.00;;;;;;;5.48;96.39;103017.13;5054391;28;20453;-73
2021/09/21 03:25:19;;;;;;;11.52;8.57;;;;;;;5.46;96.78;103012.78;5053208;28;20171;-74
2021/09/21 03:27:45;;;;;;;8.32;6.68;;;;;;;5.39;96.18;103025.34;5053800;28;20075;-74
2021/09/21 03:30:12;;;;;;;19.45;11.77;;;;;;;5.41;96.27;103031.44;5054077;28;20036;-74
2021/09/21 03:32:38;;;;;;;15.20;8.65;;;;;;;5.41;96.73;103030.59;5053277;28;20090;-73
2021/09/21 03:35:05;;;;;;;10.65;6.80;;;;;;;5.37;96.18;103032.44;5053826;28;20089;-72
2021/09/21 03:37:31;;;;;;;10.40;7.63;;;;;;;5.36;96.20;103040.41;5054090;28;20032;-73
2021/09/21 03:39:57;;;;;;;7.95;6.35;;;;;;;5.33;95.28;103040.53;5053708;28;20040;-73
2021/09/21 03:42:22;;;;;;;20.35;13.40;;;;;;;5.37;96.21;103042.16;5053369;28;20041;-73
2021/09/21 03:44:48;;;;;;;13.35;9.20;;;;;;;5.36;96.93;103045.69;5052477;28;20037;-73
2021/09/21 03:47:13;;;;;;;21.13;12.48;;;;;;;5.35;96.67;103047.50;5053595;28;20033;-73
2021/09/21 03:49:39;;;;;;;19.17;12.40;;;;;;;5.38;97.22;103057.94;5051562;28;20458;-73
2021/09/21 03:52:04;;;;;;;21.00;12.82;;;;;;;5.42;97.65;103051.66;5052224;28;20033;-73
2021/09/21 03:54:30;;;;;;;20.98;11.93;;;;;;;5.40;97.95;103052.63;5052849;28;20116;-74
2021/09/21 03:56:55;;;;;;;21.58;12.02;;;;;;;5.41;98.33;103046.44;5053165;28;20037;-73
2021/09/21 03:59:20;;;;;;;14.25;10.27;;;;;;;5.34;98.09;103056.31;5052280;28;20072;-75
2021/09/21 04:01:46;;;;;;;16.77;11.07;;;;;;;5.29;98.04;103045.91;5053204;28;20029;-73
2021/09/21 04:04:11;;;;;;;14.55;9.60;;;;;;;5.30;97.62;103046.78;5053181;28;20033;-73
2021/09/21 04:06:36;;;;;;;10.50;7.82;;;;;;;5.23;97.24;103043.47;5052264;28;20033;-73
2021/09/21 04:09:02;;;;;;;11.82;8.20;;;;;;;5.18;96.68;103050.69;5053193;28;20045;-74
2021/09/21 04:11:28;;;;;;;20.63;11.88;;;;;;;5.18;96.61;103053.34;5052150;28;20033;-73
2021/09/21 04:13:53;;;;;;;13.23;9.32;;;;;;;5.19;97.00;103056.81;5051767;28;20056;-73
2021/09/21 04:16:19;;;;;;;21.23;12.27;;;;;;;5.17;96.90;103061.31;5052702;28;20033;-73
2021/09/21 04:18:45;;;;;;;19.60;13.20;;;;;;;5.24;97.49;103060.16;5052395;28;20077;-73
2021/09/21 04:21:11;;;;;;;15.80;10.38;;;;;;;5.24;97.81;103066.31;5052959;28;20473;-73
2021/09/21 04:23:39;;;;;;;16.80;11.68;;;;;;;5.20;97.77;103064.69;5052224;28;20068;-73
2021/09/21 04:26:05;;;;;;;19.67;11.48;;;;;;;5.21;98.22;103069.06;5052843;28;20381;-73
2021/09/21 04:28:31;;;;;;;19.80;11.68;;;;;;;5.22;98.10;103068.13;5051756;28;20032;-73
2021/09/21 04:30:58;;;;;;;15.02;10.15;;;;;;;5.18;98.45;103074.44;5051608;28;20071;-73
2021/09/21 04:33:23;;;;;;;22.15;12.80;;;;;;;5.24;98.58;103076.88;5052504;28;20052;-76
2021/09/21 04:35:52;;;;;;;22.30;12.80;;;;;;;5.25;98.84;103078.59;5052959;28;20037;-73
2021/09/21 04:38:17;;;;;;;17.65;11.95;;;;;;;5.20;98.99;103083.16;5052594;28;20040;-73
2021/09/21 04:40:43;;;;;;;16.85;11.30;;;;;;;5.20;99.07;103088.44;5051815;28;20029;-72
2021/09/21 04:43:08;;;;;;;12.43;8.65;;;;;;;5.14;98.79;103085.16;5052663;28;20045;-72
2021/09/21 04:45:36;;;;;;;15.77;9.68;;;;;;;5.07;98.31;103087.09;5051962;28;20033;-73
2021/09/21 04:48:03;;;;;;;13.10;9.00;;;;;;;5.09;98.12;103090.56;5052298;28;20029;-72
2021/09/21 04:50:28;;;;;;;16.70;11.18;;;;;;;5.07;97.96;103090.59;5051630;28;20477;-72
2021/09/21 04:52:54;;;;;;;12.25;9.00;;;;;;;5.07;98.25;103089.75;5052585;28;20116;-72
2021/09/21 04:55:19;;;;;;;11.27;8.20;;;;;;;5.03;97.74;103093.38;5052169;28;20029;-72
2021/09/21 04:57:45;;;;;;;8.85;7.00;;;;;;;4.99;96.81;103094.41;5051566;28;20500;-72
2021/09/21 05:00:10;;;;;;;10.70;7.63;;;;;;;4.96;95.93;103090.09;5052365;28;20043;-72
2021/09/21 05:02:36;;;;;;;10.98;7.07;;;;;;;4.95;95.12;103099.75;5051777;28;20116;-73
2021/09/21 05:05:02;;;;;;;8.15;6.13;;;;;;;4.97;95.19;103093.59;5052488;28;20040;-72
2021/09/21 05:07:28;;;;;;;10.13;7.05;;;;;;;4.98;94.83;103103.22;5050154;28;20492;-73
2021/09/21 05:09:54;;;;;;;10.45;7.65;;;;;;;4.99;94.54;103102.34;5052251;28;20442;-73
2021/09/21 05:12:20;;;;;;;8.82;6.18;;;;;;;5.00;94.55;103106.69;5052560;28;20087;-72
2021/09/21 05:14:45;;;;;;;13.23;8.35;;;;;;;5.03;94.70;103104.81;5051670;28;20029;-72
2021/09/21 05:17:11;;;;;;;16.35;10.63;;;;;;;5.08;95.29;103102.03;5052462;28;20416;-71
2021/09/21 05:19:36;;;;;;;10.75;8.23;;;;;;;5.10;95.52;103105.47;5051635;28;20103;-71
2021/09/21 05:22:02;;;;;;;16.67;11.13;;;;;;;5.13;96.21;103094.81;5053150;28;20467;-72
2021/09/21 05:24:27;;;;;;;13.23;10.32;;;;;;;5.15;96.55;103103.56;5056198;28;20029;-70
2021/09/21 05:26:52;;;;;;;12.88;9.07;;;;;;;5.14;96.46;103112.41;5055280;28;20524;-72
2021/09/21 05:29:18;;;;;;;16.67;10.43;;;;;;;5.16;96.54;103107.06;5056123;28;20473;-72
2021/09/21 05:31:44;;;;;;;11.95;8.15;;;;;;;5.17;96.26;103106.16;5050796;28;20098;-72
2021/09/21 05:34:09;;;;;;;15.50;9.27;;;;;;;5.19;96.33;103110.47;5053197;28;20120;-71
2021/09/21 05:36:34;;;;;;;13.98;10.02;;;;;;;5.19;96.18;103104.34;5052394;28;20048;-71
2021/09/21 05:39:00;;;;;;;13.27;9.93;;;;;;;5.20;95.87;103109.56;5053442;28;20506;-69
2021/09/21 05:41:25;;;;;;;24.60;15.02;;;;;;;5.26;95.75;103105.88;5052023;28;20483;-72
2021/09/21 05:43:50;;;;;;;24.63;14.02;;;;;;;5.34;96.93;103100.34;5052033;28;20243;-72
2021/09/21 05:46:16;;;;;;;27.30;15.07;;;;;;;5.40;97.34;103095.72;5053183;28;20060;-72
2021/09/21 05:48:41;;;;;;;28.75;15.68;;;;;;;5.46;97.90;103097.28;5052239;28;20083;-72
2021/09/21 05:51:07;;;;;;;27.70;16.30;;;;;;;5.56;98.18;103092.59;5052974;28;20047;-72
2021/09/21 05:53:32;;;;;;;29.38;16.30;;;;;;;5.64;98.70;103095.81;5052516;28;20384;-75
2021/09/21 05:55:58;;;;;;;29.00;16.20;;;;;;;5.70;98.87;103094.75;5052393;28;20025;-72
2021/09/21 05:58:23;;;;;;;25.48;14.85;;;;;;;5.75;99.08;103101.59;5052962;28;20477;-72
2021/09/21 06:00:49;;;;;;;26.85;15.57;;;;;;;5.79;99.10;103099.72;5051906;28;20033;-71
2021/09/21 06:03:14;;;;;;;25.60;13.63;;;;;;;5.84;99.12;103105.72;5052991;28;20101;-70
2021/09/21 06:05:39;;;;;;;23.65;13.93;;;;;;;5.92;99.25;103114.22;5052199;28;20036;-73
2021/09/21 06:08:05;;;;;;;21.95;13.88;;;;;;;5.98;99.37;103116.69;5052299;28;20099;-70
2021/09/21 06:10:31;;;;;;;21.00;12.77;;;;;;;6.07;99.24;103125.22;5049929;28;20052;-71
2021/09/21 06:12:56;;;;;;;30.73;14.95;;;;;;;6.14;99.28;103130.25;5052819;28;20116;-71
2021/09/21 06:15:22;;;;;;;22.90;14.98;;;;;;;6.22;99.46;103137.88;5053324;28;20477;-71
2021/09/21 06:17:48;;;;;;;21.58;14.48;;;;;;;6.32;99.51;103133.16;5054122;28;20029;-71
2021/09/21 06:20:16;;;;;;;26.45;14.73;;;;;;;6.38;99.48;103132.06;5053895;28;20037;-72
2021/09/21 06:22:44;;;;;;;23.45;15.15;;;;;;;6.45;99.50;103136.19;5054496;28;20037;-71
2021/09/21 06:25:11;;;;;;;23.20;14.30;;;;;;;6.51;99.37;103138.66;5053604;28;20055;-70
2021/09/21 06:27:37;;;;;;;26.52;15.90;;;;;;;6.58;99.60;103148.06;5054732;28;20170;-74
2021/09/21 06:30:04;;;;;;;26.70;15.32;;;;;;;6.65;99.37;103141.63;5054054;28;20028;-71
2021/09/21 06:32:30;;;;;;;25.15;13.93;;;;;;;6.74;99.49;103140.41;5054056;28;20039;-73
2021/09/21 06:34:55;;;;;;;26.88;15.10;;;;;;;6.81;99.28;103146.34;5054013;28;20036;-71
2021/09/21 06:37:20;;;;;;;23.60;14.05;;;;;;;6.89;99.44;103147.75;5053625;28;20047;-72
2021/09/21 06:39:46;;;;;;;23.42;14.68;;;;;;;6.98;99.19;103157.13;5053831;28;20540;-72
2021/09/21 06:42:11;;;;;;;28.75;15.07;;;;;;;7.06;99.27;103160.38;5054582;28;20439;-72
2021/09/21 06:44:36;;;;;;;26.85;14.65;;;;;;;7.15;99.11;103164.44;5053504;28;20047;-72
2021/09/21 06:47:03;;;;;;;24.42;14.18;;;;;;;7.28;99.16;103174.56;5053984;28;20354;-72
2021/09/21 06:49:29;;;;;;;24.25;15.13;;;;;;;7.38;99.20;103171.47;5054377;28;20056;-72
2021/09/21 06:51:55;;;;;;;23.15;14.30;;;;;;;7.51;99.07;103173.63;5053800;28;20045;-72
2021/09/21 06:54:21;;;;;;;20.42;13.60;;;;;;;7.62;99.11;103171.41;5054416;28;20033;-72
2021/09/21 06:56:46;;;;;;;19.45;12.68;;;;;;;7.71;98.69;103173.69;5053829;28;20432;-72
2021/09/21 06:59:12;;;;;;;21.77;12.02;;;;;;;7.82;98.11;103183.81;5054558;28;20044;-72
2021/09/21 07:01:37;;;;;;;19.90;11.98;;;;;;;7.93;97.82;103180.75;5054174;28;20060;-72
2021/09/21 07:04:02;;;;;;;18.17;11.48;;;;;;;8.06;97.41;103179.31;5053652;28;20032;-72
2021/09/21 07:06:28;;;;;;;16.33;10.82;;;;;;;8.21;97.10;103179.56;5054201;28;20457;-72
2021/09/21 07:08:53;;;;;;;17.80;10.50;;;;;;;8.35;96.55;103186.94;5053404;28;20053;-72
2021/09/21 07:11:20;;;;;;;14.43;9.52;;;;;;;8.54;96.70;103192.28;5054046;28;20032;-72
2021/09/21 07:13:46;;;;;;;14.30;8.98;;;;;;;8.70;95.09;103195.97;5053263;28;20065;-73
2021/09/21 07:16:11;;;;;;;12.88;8.02;;;;;;;8.87;92.47;103199.66;5054278;28;20079;-72
2021/09/21 07:18:36;;;;;;;11.85;8.13;;;;;;;9.03;90.82;103202.50;5054065;28;20072;-72
2021/09/21 07:21:02;;;;;;;9.85;7.93;;;;;;;9.18;90.09;103202.63;5053696;28;20706;-73
2021/09/21 07:23:27;;;;;;;14.98;8.65;;;;;;;9.30;89.12;103201.19;5053966;28;20529;-73
2021/09/21 07:25:53;;;;;;;13.13;8.55;;;;;;;9.43;88.02;103208.56;5053402;28;20029;-73
2021/09/21 07:28:18;;;;;;;16.65;8.70;;;;;;;9.52;87.18;103216.09;5054136;28;20087;-72
2021/09/21 07:30:44;;;;;;;13.45;8.30;;;;;;;9.60;86.63;103218.38;5053256;28;20033;-75
2021/09/21 07:33:13;;;;;;;16.80;10.82;;;;;;;9.66;86.34;103224.28;5054271;28;20025;-73
2021/09/21 07:35:39;;;;;;;15.35;11.00;;;;;;;9.73;86.01;103218.66;5053808;28;20120;-73
2021/09/21 07:38:05;;;;;;;14.57;8.13;;;;;;;9.78;85.79;103217.50;5053403;28;20110;-73
2021/09/21 07:40:34;;;;;;;14.95;7.68;;;;;;;9.90;86.08;103226.66;5052577;28;20513;-72
2021/09/21 07:43:00;;;;;;;16.23;6.97;;;;;;;10.05;85.26;103222.38;5053872;28;20533;-72
2021/09/21 07:45:26;;;;;;;11.60;6.13;;;;;;;10.21;81.93;103222.44;5051913;28;20040;-72
2021/09/21 07:47:52;;;;;;;12.80;5.50;;;;;;;10.42;82.50;103225.84;5053343;28;20496;-73
2021/09/21 07:50:18;;;;;;;11.25;6.05;;;;;;;10.63;80.49;103237.19;5053861;28;20072;-71
2021/09/21 07:52:43;;;;;;;9.45;5.78;;;;;;;10.84;79.61;103229.84;5053423;28;20057;-71
2021/09/21 07:55:09;;;;;;;11.93;4.93;;;;;;;11.07;79.95;103233.06;5052953;28;20424;-70
2021/09/21 07:57:36;;;;;;;6.55;4.82;;;;;;;11.30;76.81;103237.13;5051841;28;20048;-70
2021/09/21 08:00:03;;;;;;;9.75;4.78;;;;;;;11.62;78.93;103240.63;5052947;28;20120;-71
2021/09/21 08:02:28;;;;;;;6.65;4.43;;;;;;;12.18;70.65;103234.78;5053249;28;20029;-71
2021/09/21 08:04:53;;;;;;;10.13;4.40;;;;;;;12.80;68.52;103225.72;5052331;28;20044;-71
2021/09/21 08:07:19;;;;;;;8.93;4.20;;;;;;;13.31;64.83;103228.72;5051762;28;20053;-71
2021/09/21 08:09:45;;;;;;;6.38;3.20;;;;;;;13.69;62.73;103230.75;5053083;28;20122;-71
2021/09/21 08:12:11;;;;;;;3.53;3.10;;;;;;;13.86;59.43;103221.59;5052417;28;20033;-71
2021/09/21 08:14:37;;;;;;;3.72;2.80;;;;;;;13.99;58.38;103226.97;5053278;28;20479;-71
2021/09/21 08:17:06;;;;;;;6.55;3.20;;;;;;;14.18;60.99;103229.28;5052300;28;20029;-71
2021/09/21 08:19:32;;;;;;;9.43;3.13;;;;;;;14.43;57.64;103224.91;5052924;28;20044;-71
2021/09/21 08:21:58;;;;;;;7.13;2.97;;;;;;;14.46;56.84;103228.25;5052419;28;20119;-72
2021/09/21 08:24:23;;;;;;;4.78;2.83;;;;;;;14.65;57.88;103223.44;5052863;28;20163;-71
2021/09/21 08:26:49;;;;;;;6.47;2.90;;;;;;;14.89;58.65;103218.16;5052915;28;20045;-71
2021/09/21 08:29:14;;;;;;;7.18;3.03;;;;;;;15.12;54.88;103233.47;5051858;28;20033;-71
2021/09/21 08:31:40;;;;;;;3.28;2.80;;;;;;;15.37;52.46;103237.00;5052444;28;20044;-71
2021/09/21 08:34:06;;;;;;;3.38;2.40;;;;;;;15.75;50.77;103227.97;5050964;28;20043;-71
2021/09/21 08:36:35;;;;;;;3.03;2.35;;;;;;;16.27;49.44;103236.59;5051536;28;20029;-71
2021/09/21 08:39:01;;;;;;;2.58;2.17;;;;;;;16.69;47.36;103233.34;5051988;28;20093;-71
2021/09/21 08:41:26;;;;;;;2.88;2.22;;;;;;;16.94;48.47;103234.13;5052627;28;20037;-71
2021/09/21 08:43:52;;;;;;;6.72;3.03;;;;;;;17.25;46.23;103236.03;5052116;28;20117;-72
2021/09/21 08:46:18;;;;;;;3.45;2.40;;;;;;;17.31;46.96;103232.00;5051127;28;20086;-71
2021/09/21 08:48:43;;;;;;;6.50;2.40;;;;;;;17.48;47.28;103235.13;5051126;28;20496;-71
2021/09/21 08:51:09;;;;;;;3.92;2.35;;;;;;;17.79;46.89;103234.31;5051831;28;20033;-70
2021/09/21 08:53:34;;;;;;;3.47;2.40;;;;;;;18.18;42.77;103233.75;5052675;28;20118;-71
2021/09/21 08:56:00;;;;;;;8.40;2.45;;;;;;;18.68;42.74;103239.31;5051707;28;20025;-71
2021/09/21 08:58:26;;;;;;;3.78;2.33;;;;;;;19.29;41.82;103234.88;5052038;28;20091;-71
2021/09/21 09:00:51;;;;;;;3.65;2.30;;;;;;;20.06;36.84;103238.66;5052131;28;20029;-71
2021/09/21 09:03:17;;;;;;;5.68;2.67;;;;;;;20.68;38.93;103246.34;5051786;28;20115;-71
2021/09/21 09:05:53;;;;;;;4.28;2.30;;;;;;;21.18;37.35;103244.28;5052332;28;20041;-72
2021/09/21 09:08:30;;;;;;;3.60;2.45;;;;;;;21.36;37.47;103247.84;5051222;28;20045;-71
2021/09/21 09:11:16;;;;;;;5.78;2.70;;;;;;;21.65;35.04;103244.97;5050366;28;20033;-72
2021/09/21 09:13:44;;;;;;;4.95;2.60;;;;;;;21.51;36.07;103247.38;5052232;28;20576;-72
2021/09/21 09:16:15;;;;;;;8.90;2.70;;;;;;;20.97;36.22;103234.53;5051653;28;20029;-72
2021/09/21 09:18:41;;;;;;;7.93;3.22;;;;;;;21.30;34.75;103234.94;5052258;28;20473;-72
2021/09/21 09:21:08;;;;;;;4.15;2.40;;;;;;;21.29;36.71;103236.78;5051656;28;20033;-72
2021/09/21 09:23:33;;;;;;;5.03;2.35;;;;;;;21.43;37.37;103245.41;5052094;28;20120;-72
2021/09/21 09:25:59;;;;;;;5.47;2.70;;;;;;;21.56;37.69;103247.78;5051578;28;20107;-71
2021/09/21 09:28:27;;;;;;;6.50;2.85;;;;;;;22.18;35.71;103247.78;5051698;28;20033;-71
2021/09/21 09:30:54;;;;;;;8.05;2.80;;;;;;;22.44;35.01;103247.00;5051977;28;20056;-71
2021/09/21 09:33:20;;;;;;;5.30;2.63;;;;;;;23.05;33.13;103240.50;5051049;28;20041;-71
2021/09/21 09:35:47;;;;;;;6.75;2.75;;;;;;;23.39;32.38;103239.63;5052022;28;20060;-71
2021/09/21 09:38:16;;;;;;;7.80;2.30;;;;;;;23.70;32.08;103238.13;5051157;28;20036;-71
2021/09/21 09:40:45;;;;;;;6.53;2.17;;;;;;;24.17;31.32;103242.91;5052120;28;20129;-71
2021/09/21 09:43:11;;;;;;;3.45;2.20;;;;;;;24.47;28.82;103240.47;5051249;28;20052;-71
2021/09/21 09:45:42;;;;;;;3.38;1.90;;;;;;;24.26;27.56;103241.03;5051999;28;20029;-71
2021/09/21 09:48:12;;;;;;;4.57;2.28;;;;;;;24.10;29.95;103242.72;5051594;28;20033;-72
2021/09/21 09:50:42;;;;;;;4.32;2.17;;;;;;;24.49;30.11;103243.03;5052001;28;20025;-71
2021/09/21 09:53:25;;;;;;;8.60;2.03;;;;;;;25.30;26.82;103244.63;5051344;28;20028;-72
2021/09/21 09:55:54;;;;;;;6.97;1.95;;;;;;;25.31;27.73;103240.84;5051920;28;20057;-71
2021/09/21 09:58:21;;;;;;;2.95;1.90;;;;;;;25.88;27.25;103236.81;5051234;28;20045;-71
2021/09/21 10:00:49;;;;;;;3.10;1.83;;;;;;;26.14;25.28;103246.53;5051823;28;20037;-71
2021/09/21 10:03:15;;;;;;;3.22;2.00;;;;;;;26.36;26.14;103238.47;5051246;28;20079;-71
2021/09/21 10:05:41;;;;;;;5.65;1.67;;;;;;;25.94;26.58;103240.72;5051734;28;20025;-71
2021/09/21 10:08:09;;;;;;;4.88;2.00;;;;;;;26.15;26.34;103236.47;5051904;28;20128;-72
2021/09/21 10:10:36;;;;;;;3.38;1.70;;;;;;;26.18;25.77;103247.00;5054979;28;20032;-71
2021/09/21 10:13:07;;;;;;;3.38;2.00;;;;;;;26.11;25.50;103248.78;5055129;28;20037;-73
2021/09/21 10:15:32;;;;;;;3.55;2.28;;;;;;;26.48;26.45;103253.31;5054857;28;20518;-72
2021/09/21 10:17:59;;;;;;;7.30;2.60;;;;;;;26.39;26.59;103251.72;5055195;28;20064;-70
2021/09/21 10:20:36;;;;;;;7.75;2.13;;;;;;;26.03;29.04;103242.34;5054528;28;20021;-71
2021/09/21 10:23:07;;;;;;;5.30;2.58;;;;;;;25.76;28.37;103240.19;5055208;28;20032;-71
2021/09/21 10:25:38;;;;;;;4.32;2.42;;;;;;;25.20;30.21;103232.19;5055516;28;20492;-69
2021/09/21 10:28:20;;;;;;;5.38;2.47;;;;;;;25.02;30.87;103235.19;5047761;28;20090;-71
2021/09/21 10:30:57;;;;;;;7.10;2.63;;;;;;;25.61;28.54;103230.06;5048760;28;20041;-71
2021/09/21 10:33:27;;;;;;;7.78;2.42;;;;;;;25.65;30.41;103236.03;5051623;28;20044;-71
2021/09/21 10:35:54;;;;;;;9.57;3.03;;;;;;;25.31;30.60;103231.81;5051015;28;20105;-71
2021/09/21 10:38:20;;;;;;;8.73;3.15;;;;;;;24.70;31.97;103232.44;5051096;28;20433;-71
2021/09/21 10:40:48;;;;;;;6.55;2.80;;;;;;;24.55;30.03;103231.44;5051613;28;20432;-71
2021/09/21 10:43:31;;;;;;;5.68;2.70;;;;;;;24.01;32.05;103232.88;5045986;28;20028;-72
2021/09/21 10:46:16;;;;;;;6.00;2.38;;;;;;;23.94;30.84;103238.19;5050281;28;20025;-71
2021/09/21 10:48:44;;;;;;;3.67;2.60;;;;;;;24.15;32.56;103231.34;5053609;28;20148;-71
2021/09/21 10:51:11;;;;;;;2.95;2.50;;;;;;;24.51;32.28;103227.34;5053058;28;20120;-72
2021/09/21 10:53:37;;;;;;;3.67;2.67;;;;;;;24.77;30.37;103225.25;5054184;28;20033;-71
2021/09/21 10:56:06;;;;;;;5.00;2.88;;;;;;;24.52;31.34;103231.78;5054537;28;20432;-71
2021/09/21 10:58:32;;;;;;;7.32;3.45;;;;;;;24.16;32.34;103232.22;5053565;28;20401;-72
2021/09/21 11:00:58;;;;;;;5.97;3.80;;;;;;;24.21;32.85;103233.38;5054313;28;20055;-72
2021/09/21 11:03:25;;;;;;;8.60;3.72;;;;;;;24.08;32.40;103231.19;5053672;28;20466;-72
2021/09/21 11:05:53;;;;;;;8.80;4.00;;;;;;;23.80;33.53;103222.50;5054262;28;20104;-72
2021/09/21 11:08:18;;;;;;;8.80;4.00;;;;;;;23.65;33.60;103229.66;5053485;28;20044;-72
2021/09/21 11:10:47;;;;;;;4.50;3.70;;;;;;;22.90;34.82;103234.00;5054364;28;20036;-71
2021/09/21 11:13:16;;;;;;;9.60;4.25;;;;;;;22.53;35.26;103230.59;5053384;28;20517;-72
2021/09/21 11:15:43;;;;;;;11.13;3.60;;;;;;;22.92;35.74;103237.41;5053190;28;20518;-71
2021/09/21 11:18:21;;;;;;;8.23;3.70;;;;;;;23.69;34.59;103230.97;5053333;28;20029;-71
2021/09/21 11:20:55;;;;;;;4.78;3.25;;;;;;;24.35;33.56;103229.09;5053590;28;20059;-71
2021/09/21 11:23:24;;;;;;;6.65;3.90;;;;;;;24.23;32.77;103219.59;5052261;28;20032;-72
2021/09/21 11:25:52;;;;;;;10.25;3.90;;;;;;;23.55;33.70;103222.47;5053888;28;20489;-72
2021/09/21 11:28:18;;;;;;;7.80;3.42;;;;;;;23.48;34.86;103216.00;5053624;28;20093;-72
2021/09/21 11:30:45;;;;;;;10.82;3.92;;;;;;;23.77;33.32;103214.69;5054046;28;20052;-72
2021/09/21 11:33:17;;;;;;;6.47;3.70;;;;;;;23.22;35.54;103214.28;5053888;28;20028;-71